sensor_id;sensor_type;location;lat;lon;timestamp;P1;durP1;ratioP1;P2;durP2;ratioP2
42726;SDS011;28372;56.832;60.658;2023-12-22T00:00:08;3.33;;;2.05;;
42726;SDS011;28372;56.832;60.658;2023-12-22T00:02:43;4.28;;;2.33;;
42726;SDS011;28372;56.832;60.658;2023-12-22T00:05:11;3.90;;;2.25;;
42726;SDS011;28372;56.832;60.658;2023-12-22T00:07:38;4.93;;;2.63;;
42726;SDS011;28372;56.832;60.658;2023-12-22T00:10:06;4.20;;;2.22;;
42726;SDS011;28372;56.832;60.658;2023-12-22T00:12:34;3.75;;;2.20;;
42726;SDS011;28372;56.832;60.658;2023-12-22T00:15:04;2.95;;;1.70;;
42726;SDS011;28372;56.832;60.658;2023-12-22T00:17:33;3.78;;;1.88;;
42726;SDS011;28372;56.832;60.658;2023-12-22T00:20:01;4.70;;;1.85;;
42726;SDS011;28372;56.832;60.658;2023-12-22T00:22:33;3.47;;;1.95;;
42726;SDS011;28372;56.832;60.658;2023-12-22T00:25:02;3.22;;;2.03;;
42726;SDS011;28372;56.832;60.658;2023-12-22T00:27:30;3.90;;;1.90;;
42726;SDS011;28372;56.832;60.658;2023-12-22T00:29:58;2.90;;;1.70;;
42726;SDS011;28372;56.832;60.658;2023-12-22T00:32:26;4.88;;;2.10;;
42726;SDS011;28372;56.832;60.658;2023-12-22T00:34:54;3.83;;;1.80;;
42726;SDS011;28372;56.832;60.658;2023-12-22T00:37:25;2.83;;;1.65;;
42726;SDS011;28372;56.832;60.658;2023-12-22T00:40:02;2.78;;;1.50;;
42726;SDS011;28372;56.832;60.658;2023-12-22T00:42:35;2.92;;;1.42;;
42726;SDS011;28372;56.832;60.658;2023-12-22T00:45:03;2.80;;;1.58;;
42726;SDS011;28372;56.832;60.658;2023-12-22T00:47:32;2.90;;;1.40;;
42726;SDS011;28372;56.832;60.658;2023-12-22T00:50:03;3.00;;;1.40;;
42726;SDS011;28372;56.832;60.658;2023-12-22T00:52:33;2.90;;;1.45;;
42726;SDS011;28372;56.832;60.658;2023-12-22T00:55:02;5.18;;;1.67;;
42726;SDS011;28372;56.832;60.658;2023-12-22T00:57:30;2.85;;;1.48;;
42726;SDS011;28372;56.832;60.658;2023-12-22T00:59:58;4.03;;;1.60;;
42726;SDS011;28372;56.832;60.658;2023-12-22T01:02:30;2.53;;;1.40;;
42726;SDS011;28372;56.832;60.658;2023-12-22T01:04:58;4.82;;;1.73;;
42726;SDS011;28372;56.832;60.658;2023-12-22T01:07:26;2.75;;;1.40;;
42726;SDS011;28372;56.832;60.658;2023-12-22T01:09:53;2.05;;;1.20;;
42726;SDS011;28372;56.832;60.658;2023-12-22T01:12:21;2.58;;;1.30;;
42726;SDS011;28372;56.832;60.658;2023-12-22T01:14:49;3.00;;;1.42;;
42726;SDS011;28372;56.832;60.658;2023-12-22T01:17:18;3.25;;;1.70;;
42726;SDS011;28372;56.832;60.658;2023-12-22T01:19:46;3.80;;;1.63;;
42726;SDS011;28372;56.832;60.658;2023-12-22T01:22:14;3.38;;;1.50;;
42726;SDS011;28372;56.832;60.658;2023-12-22T01:24:42;4.63;;;1.73;;
42726;SDS011;28372;56.832;60.658;2023-12-22T01:27:15;2.55;;;1.55;;
42726;SDS011;28372;56.832;60.658;2023-12-22T01:29:44;3.03;;;1.42;;
42726;SDS011;28372;56.832;60.658;2023-12-22T01:32:11;3.20;;;1.50;;
42726;SDS011;28372;56.832;60.658;2023-12-22T01:34:40;2.40;;;1.30;;
42726;SDS011;28372;56.832;60.658;2023-12-22T01:37:10;3.35;;;1.40;;
42726;SDS011;28372;56.832;60.658;2023-12-22T01:39:41;2.65;;;1.38;;
42726;SDS011;28372;56.832;60.658;2023-12-22T01:42:13;5.15;;;1.70;;
42726;SDS011;28372;56.832;60.658;2023-12-22T01:44:43;2.72;;;1.30;;
42726;SDS011;28372;56.832;60.658;2023-12-22T01:47:10;5.32;;;1.55;;
42726;SDS011;28372;56.832;60.658;2023-12-22T01:49:38;2.42;;;1.10;;
42726;SDS011;28372;56.832;60.658;2023-12-22T01:52:25;2.75;;;1.20;;
42726;SDS011;28372;56.832;60.658;2023-12-22T01:54:54;2.28;;;0.93;;
42726;SDS011;28372;56.832;60.658;2023-12-22T01:57:33;2.58;;;0.95;;
42726;SDS011;28372;56.832;60.658;2023-12-22T02:00:08;2.78;;;1.20;;
42726;SDS011;28372;56.832;60.658;2023-12-22T02:02:44;3.45;;;1.38;;
42726;SDS011;28372;56.832;60.658;2023-12-22T02:05:12;1.42;;;0.85;;
42726;SDS011;28372;56.832;60.658;2023-12-22T02:07:43;3.40;;;1.58;;
42726;SDS011;28372;56.832;60.658;2023-12-22T02:10:13;3.70;;;1.60;;
42726;SDS011;28372;56.832;60.658;2023-12-22T02:12:40;3.50;;;1.60;;
42726;SDS011;28372;56.832;60.658;2023-12-22T02:15:10;3.50;;;1.58;;
42726;SDS011;28372;56.832;60.658;2023-12-22T02:20:53;5.85;;;1.75;;
42726;SDS011;28372;56.832;60.658;2023-12-22T02:23:30;2.97;;;1.38;;
42726;SDS011;28372;56.832;60.658;2023-12-22T02:26:02;3.88;;;1.77;;
42726;SDS011;28372;56.832;60.658;2023-12-22T02:28:46;3.78;;;1.58;;
42726;SDS011;28372;56.832;60.658;2023-12-22T02:31:22;4.50;;;1.80;;
42726;SDS011;28372;56.832;60.658;2023-12-22T02:33:58;3.30;;;1.50;;
42726;SDS011;28372;56.832;60.658;2023-12-22T02:36:30;4.30;;;1.50;;
42726;SDS011;28372;56.832;60.658;2023-12-22T02:39:23;2.80;;;1.15;;
42726;SDS011;28372;56.832;60.658;2023-12-22T02:42:00;4.50;;;1.77;;
42726;SDS011;28372;56.832;60.658;2023-12-22T02:44:28;3.72;;;1.55;;
42726;SDS011;28372;56.832;60.658;2023-12-22T02:46:56;3.97;;;2.03;;
42726;SDS011;28372;56.832;60.658;2023-12-22T02:49:24;3.78;;;1.55;;
42726;SDS011;28372;56.832;60.658;2023-12-22T02:51:52;4.15;;;1.80;;
42726;SDS011;28372;56.832;60.658;2023-12-22T02:54:19;5.15;;;2.30;;
42726;SDS011;28372;56.832;60.658;2023-12-22T02:56:47;7.95;;;2.30;;
42726;SDS011;28372;56.832;60.658;2023-12-22T02:59:15;2.67;;;1.00;;
42726;SDS011;28372;56.832;60.658;2023-12-22T03:01:53;3.40;;;1.85;;
42726;SDS011;28372;56.832;60.658;2023-12-22T03:04:21;3.45;;;1.83;;
42726;SDS011;28372;56.832;60.658;2023-12-22T03:06:52;3.42;;;1.88;;
42726;SDS011;28372;56.832;60.658;2023-12-22T03:09:58;3.75;;;2.03;;
42726;SDS011;28372;56.832;60.658;2023-12-22T03:12:51;4.22;;;2.10;;
42726;SDS011;28372;56.832;60.658;2023-12-22T03:15:19;4.65;;;2.05;;
42726;SDS011;28372;56.832;60.658;2023-12-22T03:17:47;4.38;;;2.08;;
42726;SDS011;28372;56.832;60.658;2023-12-22T03:20:17;7.15;;;2.30;;
42726;SDS011;28372;56.832;60.658;2023-12-22T03:22:45;5.95;;;2.05;;
42726;SDS011;28372;56.832;60.658;2023-12-22T03:25:13;5.65;;;2.22;;
42726;SDS011;28372;56.832;60.658;2023-12-22T03:27:41;6.90;;;2.22;;
42726;SDS011;28372;56.832;60.658;2023-12-22T03:30:17;6.72;;;2.20;;
42726;SDS011;28372;56.832;60.658;2023-12-22T03:32:48;8.48;;;2.80;;
42726;SDS011;28372;56.832;60.658;2023-12-22T03:35:16;5.28;;;2.60;;
42726;SDS011;28372;56.832;60.658;2023-12-22T03:37:44;6.93;;;2.55;;
42726;SDS011;28372;56.832;60.658;2023-12-22T03:40:14;8.68;;;2.65;;
42726;SDS011;28372;56.832;60.658;2023-12-22T03:42:43;8.15;;;2.55;;
42726;SDS011;28372;56.832;60.658;2023-12-22T03:45:11;5.20;;;2.10;;
42726;SDS011;28372;56.832;60.658;2023-12-22T03:47:39;5.90;;;2.40;;
42726;SDS011;28372;56.832;60.658;2023-12-22T03:50:11;6.38;;;2.60;;
42726;SDS011;28372;56.832;60.658;2023-12-22T03:52:39;5.30;;;2.42;;
42726;SDS011;28372;56.832;60.658;2023-12-22T03:55:10;4.47;;;2.42;;
42726;SDS011;28372;56.832;60.658;2023-12-22T03:57:43;5.35;;;2.50;;
42726;SDS011;28372;56.832;60.658;2023-12-22T04:00:25;5.03;;;2.42;;
42726;SDS011;28372;56.832;60.658;2023-12-22T04:02:53;5.30;;;2.40;;
42726;SDS011;28372;56.832;60.658;2023-12-22T04:05:29;5.45;;;2.72;;
42726;SDS011;28372;56.832;60.658;2023-12-22T04:08:38;4.80;;;2.40;;
42726;SDS011;28372;56.832;60.658;2023-12-22T04:11:08;5.65;;;2.58;;
42726;SDS011;28372;56.832;60.658;2023-12-22T04:13:36;5.43;;;2.15;;
42726;SDS011;28372;56.832;60.658;2023-12-22T04:16:04;7.85;;;2.78;;
42726;SDS011;28372;56.832;60.658;2023-12-22T04:18:32;5.97;;;2.30;;
42726;SDS011;28372;56.832;60.658;2023-12-22T04:21:00;6.35;;;2.30;;
42726;SDS011;28372;56.832;60.658;2023-12-22T04:23:29;4.13;;;2.28;;
42726;SDS011;28372;56.832;60.658;2023-12-22T04:26:00;4.60;;;2.45;;
42726;SDS011;28372;56.832;60.658;2023-12-22T04:28:29;4.72;;;2.30;;
42726;SDS011;28372;56.832;60.658;2023-12-22T04:31:18;4.35;;;2.50;;
42726;SDS011;28372;56.832;60.658;2023-12-22T04:33:47;4.38;;;1.50;;
42726;SDS011;28372;56.832;60.658;2023-12-22T04:36:18;5.00;;;2.13;;
42726;SDS011;28372;56.832;60.658;2023-12-22T04:38:48;4.65;;;2.17;;
42726;SDS011;28372;56.832;60.658;2023-12-22T04:41:28;4.93;;;2.20;;
42726;SDS011;28372;56.832;60.658;2023-12-22T04:44:08;3.40;;;2.00;;
42726;SDS011;28372;56.832;60.658;2023-12-22T04:46:37;5.18;;;2.25;;
42726;SDS011;28372;56.832;60.658;2023-12-22T04:49:07;5.22;;;2.60;;
42726;SDS011;28372;56.832;60.658;2023-12-22T04:51:37;4.65;;;1.73;;
42726;SDS011;28372;56.832;60.658;2023-12-22T04:54:05;5.32;;;2.10;;
42726;SDS011;28372;56.832;60.658;2023-12-22T04:56:32;7.90;;;2.50;;
42726;SDS011;28372;56.832;60.658;2023-12-22T04:59:03;9.40;;;2.90;;
42726;SDS011;28372;56.832;60.658;2023-12-22T05:01:30;6.28;;;3.00;;
42726;SDS011;28372;56.832;60.658;2023-12-22T05:03:58;7.75;;;2.30;;
42726;SDS011;28372;56.832;60.658;2023-12-22T05:06:26;4.82;;;2.30;;
42726;SDS011;28372;56.832;60.658;2023-12-22T05:08:55;10.32;;;4.38;;
42726;SDS011;28372;56.832;60.658;2023-12-22T05:11:26;5.88;;;2.63;;
42726;SDS011;28372;56.832;60.658;2023-12-22T05:13:57;5.40;;;2.90;;
42726;SDS011;28372;56.832;60.658;2023-12-22T05:16:28;6.15;;;2.60;;
42726;SDS011;28372;56.832;60.658;2023-12-22T05:18:59;5.63;;;3.08;;
42726;SDS011;28372;56.832;60.658;2023-12-22T05:21:29;5.32;;;2.67;;
42726;SDS011;28372;56.832;60.658;2023-12-22T05:23:59;5.88;;;2.63;;
42726;SDS011;28372;56.832;60.658;2023-12-22T05:26:27;6.80;;;3.15;;
42726;SDS011;28372;56.832;60.658;2023-12-22T05:28:57;5.63;;;2.58;;
42726;SDS011;28372;56.832;60.658;2023-12-22T05:31:30;4.72;;;2.50;;
42726;SDS011;28372;56.832;60.658;2023-12-22T05:34:00;6.57;;;3.30;;
42726;SDS011;28372;56.832;60.658;2023-12-22T05:36:30;9.13;;;4.00;;
42726;SDS011;28372;56.832;60.658;2023-12-22T05:38:58;7.57;;;3.65;;
42726;SDS011;28372;56.832;60.658;2023-12-22T05:41:44;7.13;;;3.47;;
42726;SDS011;28372;56.832;60.658;2023-12-22T05:44:13;7.10;;;3.45;;
42726;SDS011;28372;56.832;60.658;2023-12-22T05:46:40;5.40;;;2.88;;
42726;SDS011;28372;56.832;60.658;2023-12-22T05:49:09;10.07;;;4.30;;
42726;SDS011;28372;56.832;60.658;2023-12-22T05:51:37;7.53;;;2.55;;
42726;SDS011;28372;56.832;60.658;2023-12-22T05:54:09;5.28;;;2.53;;
42726;SDS011;28372;56.832;60.658;2023-12-22T05:56:39;7.78;;;3.47;;
42726;SDS011;28372;56.832;60.658;2023-12-22T05:59:10;8.45;;;4.18;;
42726;SDS011;28372;56.832;60.658;2023-12-22T06:01:40;6.75;;;3.22;;
42726;SDS011;28372;56.832;60.658;2023-12-22T06:04:08;7.35;;;3.63;;
42726;SDS011;28372;56.832;60.658;2023-12-22T06:06:37;8.73;;;3.65;;
42726;SDS011;28372;56.832;60.658;2023-12-22T06:09:09;6.07;;;3.42;;
42726;SDS011;28372;56.832;60.658;2023-12-22T06:11:42;6.97;;;3.50;;
42726;SDS011;28372;56.832;60.658;2023-12-22T06:14:12;7.10;;;2.85;;
42726;SDS011;28372;56.832;60.658;2023-12-22T06:16:40;8.73;;;3.42;;
42726;SDS011;28372;56.832;60.658;2023-12-22T06:19:08;4.85;;;2.15;;
42726;SDS011;28372;56.832;60.658;2023-12-22T06:21:37;6.88;;;1.92;;
42726;SDS011;28372;56.832;60.658;2023-12-22T06:24:07;6.10;;;3.10;;
42726;SDS011;28372;56.832;60.658;2023-12-22T06:26:40;4.72;;;2.88;;
42726;SDS011;28372;56.832;60.658;2023-12-22T06:29:14;4.28;;;2.10;;
42726;SDS011;28372;56.832;60.658;2023-12-22T06:31:43;7.13;;;3.85;;
42726;SDS011;28372;56.832;60.658;2023-12-22T06:34:11;5.28;;;2.92;;
42726;SDS011;28372;56.832;60.658;2023-12-22T06:36:39;5.70;;;3.00;;
42726;SDS011;28372;56.832;60.658;2023-12-22T06:39:12;7.00;;;3.90;;
42726;SDS011;28372;56.832;60.658;2023-12-22T06:41:40;7.25;;;3.60;;
42726;SDS011;28372;56.832;60.658;2023-12-22T06:44:08;4.97;;;3.05;;
42726;SDS011;28372;56.832;60.658;2023-12-22T06:46:38;6.93;;;3.33;;
42726;SDS011;28372;56.832;60.658;2023-12-22T06:49:08;7.63;;;4.00;;
42726;SDS011;28372;56.832;60.658;2023-12-22T06:51:37;4.60;;;2.65;;
42726;SDS011;28372;56.832;60.658;2023-12-22T06:54:07;7.95;;;4.20;;
42726;SDS011;28372;56.832;60.658;2023-12-22T06:56:39;5.88;;;2.95;;
42726;SDS011;28372;56.832;60.658;2023-12-22T06:59:08;6.50;;;3.35;;
42726;SDS011;28372;56.832;60.658;2023-12-22T07:01:50;6.43;;;3.03;;
42726;SDS011;28372;56.832;60.658;2023-12-22T07:04:34;5.90;;;2.15;;
42726;SDS011;28372;56.832;60.658;2023-12-22T07:07:02;7.07;;;3.80;;
42726;SDS011;28372;56.832;60.658;2023-12-22T07:09:34;6.97;;;3.25;;
42726;SDS011;28372;56.832;60.658;2023-12-22T07:12:10;6.00;;;2.92;;
42726;SDS011;28372;56.832;60.658;2023-12-22T07:14:42;9.00;;;3.95;;
42726;SDS011;28372;56.832;60.658;2023-12-22T07:17:26;6.28;;;1.98;;
42726;SDS011;28372;56.832;60.658;2023-12-22T07:20:00;5.00;;;2.50;;
42726;SDS011;28372;56.832;60.658;2023-12-22T07:22:38;10.15;;;3.28;;
42726;SDS011;28372;56.832;60.658;2023-12-22T07:25:06;6.80;;;3.70;;
42726;SDS011;28372;56.832;60.658;2023-12-22T07:27:37;4.15;;;2.20;;
42726;SDS011;28372;56.832;60.658;2023-12-22T07:30:05;5.88;;;3.08;;
42726;SDS011;28372;56.832;60.658;2023-12-22T07:32:48;5.57;;;2.72;;
42726;SDS011;28372;56.832;60.658;2023-12-22T07:35:20;6.57;;;3.17;;
42726;SDS011;28372;56.832;60.658;2023-12-22T07:37:54;4.93;;;2.78;;
42726;SDS011;28372;56.832;60.658;2023-12-22T07:40:33;5.10;;;2.85;;
42726;SDS011;28372;56.832;60.658;2023-12-22T07:43:06;5.38;;;2.65;;
42726;SDS011;28372;56.832;60.658;2023-12-22T07:45:35;6.43;;;3.17;;
42726;SDS011;28372;56.832;60.658;2023-12-22T07:48:04;3.30;;;1.75;;
42726;SDS011;28372;56.832;60.658;2023-12-22T07:50:33;4.72;;;2.55;;
42726;SDS011;28372;56.832;60.658;2023-12-22T07:53:02;6.15;;;3.13;;
42726;SDS011;28372;56.832;60.658;2023-12-22T07:55:34;9.80;;;3.40;;
42726;SDS011;28372;56.832;60.658;2023-12-22T07:58:23;2.53;;;1.40;;
42726;SDS011;28372;56.832;60.658;2023-12-22T08:01:10;4.85;;;2.10;;
42726;SDS011;28372;56.832;60.658;2023-12-22T08:03:48;5.55;;;2.78;;
42726;SDS011;28372;56.832;60.658;2023-12-22T08:06:16;5.80;;;2.75;;
42726;SDS011;28372;56.832;60.658;2023-12-22T08:08:47;7.55;;;2.97;;
42726;SDS011;28372;56.832;60.658;2023-12-22T08:11:15;4.97;;;3.00;;
42726;SDS011;28372;56.832;60.658;2023-12-22T08:13:43;5.85;;;2.80;;
42726;SDS011;28372;56.832;60.658;2023-12-22T08:16:30;4.28;;;2.33;;
42726;SDS011;28372;56.832;60.658;2023-12-22T08:19:17;4.13;;;2.00;;
42726;SDS011;28372;56.832;60.658;2023-12-22T08:21:47;5.75;;;1.88;;
42726;SDS011;28372;56.832;60.658;2023-12-22T08:24:17;6.50;;;3.55;;
42726;SDS011;28372;56.832;60.658;2023-12-22T08:26:50;6.93;;;2.95;;
42726;SDS011;28372;56.832;60.658;2023-12-22T08:29:19;4.15;;;2.40;;
42726;SDS011;28372;56.832;60.658;2023-12-22T08:31:47;4.40;;;1.88;;
42726;SDS011;28372;56.832;60.658;2023-12-22T08:34:15;6.03;;;3.13;;
42726;SDS011;28372;56.832;60.658;2023-12-22T08:36:43;4.90;;;2.42;;
42726;SDS011;28372;56.832;60.658;2023-12-22T08:39:29;4.53;;;2.20;;
42726;SDS011;28372;56.832;60.658;2023-12-22T08:41:57;4.65;;;2.22;;
42726;SDS011;28372;56.832;60.658;2023-12-22T08:44:25;6.50;;;3.30;;
42726;SDS011;28372;56.832;60.658;2023-12-22T08:46:53;4.82;;;2.05;;
42726;SDS011;28372;56.832;60.658;2023-12-22T08:49:26;5.88;;;2.80;;
42726;SDS011;28372;56.832;60.658;2023-12-22T08:51:55;4.45;;;1.98;;
42726;SDS011;28372;56.832;60.658;2023-12-22T08:54:26;6.00;;;3.10;;
42726;SDS011;28372;56.832;60.658;2023-12-22T08:56:55;6.53;;;3.03;;
42726;SDS011;28372;56.832;60.658;2023-12-22T08:59:23;7.65;;;3.38;;
42726;SDS011;28372;56.832;60.658;2023-12-22T09:01:51;5.70;;;3.13;;
42726;SDS011;28372;56.832;60.658;2023-12-22T09:04:19;6.95;;;3.40;;
42726;SDS011;28372;56.832;60.658;2023-12-22T09:06:50;6.00;;;2.50;;
42726;SDS011;28372;56.832;60.658;2023-12-22T09:09:21;6.25;;;2.90;;
42726;SDS011;28372;56.832;60.658;2023-12-22T09:11:52;5.13;;;2.33;;
42726;SDS011;28372;56.832;60.658;2023-12-22T09:14:21;3.75;;;2.35;;
42726;SDS011;28372;56.832;60.658;2023-12-22T09:16:49;7.75;;;3.05;;
42726;SDS011;28372;56.832;60.658;2023-12-22T09:19:16;8.90;;;3.55;;
42726;SDS011;28372;56.832;60.658;2023-12-22T09:21:45;6.43;;;3.00;;
42726;SDS011;28372;56.832;60.658;2023-12-22T09:24:12;7.22;;;3.22;;
42726;SDS011;28372;56.832;60.658;2023-12-22T09:26:40;4.03;;;2.50;;
42726;SDS011;28372;56.832;60.658;2023-12-22T09:29:15;7.70;;;3.40;;
42726;SDS011;28372;56.832;60.658;2023-12-22T09:32:00;5.80;;;3.05;;
42726;SDS011;28372;56.832;60.658;2023-12-22T09:34:29;6.82;;;3.38;;
42726;SDS011;28372;56.832;60.658;2023-12-22T09:36:58;3.75;;;2.08;;
42726;SDS011;28372;56.832;60.658;2023-12-22T09:39:25;5.85;;;2.97;;
42726;SDS011;28372;56.832;60.658;2023-12-22T09:41:56;4.13;;;1.85;;
42726;SDS011;28372;56.832;60.658;2023-12-22T09:44:25;6.03;;;3.47;;
42726;SDS011;28372;56.832;60.658;2023-12-22T09:46:59;5.78;;;2.50;;
42726;SDS011;28372;56.832;60.658;2023-12-22T09:49:33;8.57;;;3.10;;
42726;SDS011;28372;56.832;60.658;2023-12-22T09:52:04;7.35;;;3.10;;
42726;SDS011;28372;56.832;60.658;2023-12-22T09:54:33;5.45;;;2.78;;
42726;SDS011;28372;56.832;60.658;2023-12-22T09:57:05;8.75;;;3.80;;
42726;SDS011;28372;56.832;60.658;2023-12-22T09:59:52;7.57;;;3.25;;
42726;SDS011;28372;56.832;60.658;2023-12-22T10:02:23;7.65;;;3.60;;
42726;SDS011;28372;56.832;60.658;2023-12-22T10:04:59;9.02;;;3.85;;
42726;SDS011;28372;56.832;60.658;2023-12-22T10:07:30;6.20;;;3.22;;
42726;SDS011;28372;56.832;60.658;2023-12-22T10:09:59;5.28;;;2.55;;
42726;SDS011;28372;56.832;60.658;2023-12-22T10:12:29;7.97;;;2.80;;
42726;SDS011;28372;56.832;60.658;2023-12-22T10:15:01;7.72;;;3.33;;
42726;SDS011;28372;56.832;60.658;2023-12-22T10:17:32;6.80;;;2.60;;
42726;SDS011;28372;56.832;60.658;2023-12-22T10:20:02;6.47;;;3.40;;
42726;SDS011;28372;56.832;60.658;2023-12-22T10:22:36;5.55;;;2.72;;
42726;SDS011;28372;56.832;60.658;2023-12-22T10:25:05;6.63;;;2.80;;
42726;SDS011;28372;56.832;60.658;2023-12-22T10:27:36;5.20;;;2.58;;
42726;SDS011;28372;56.832;60.658;2023-12-22T10:30:04;6.95;;;3.60;;
42726;SDS011;28372;56.832;60.658;2023-12-22T10:32:42;5.95;;;2.80;;
42726;SDS011;28372;56.832;60.658;2023-12-22T10:35:11;8.30;;;4.18;;
42726;SDS011;28372;56.832;60.658;2023-12-22T10:37:41;6.80;;;3.95;;
42726;SDS011;28372;56.832;60.658;2023-12-22T10:40:13;8.10;;;3.40;;
42726;SDS011;28372;56.832;60.658;2023-12-22T10:43:15;6.28;;;2.90;;
42726;SDS011;28372;56.832;60.658;2023-12-22T10:45:43;4.38;;;2.13;;
42726;SDS011;28372;56.832;60.658;2023-12-22T10:48:11;10.75;;;4.10;;
42726;SDS011;28372;56.832;60.658;2023-12-22T10:50:43;7.38;;;3.00;;
42726;SDS011;28372;56.832;60.658;2023-12-22T10:53:15;9.68;;;4.50;;
42726;SDS011;28372;56.832;60.658;2023-12-22T10:55:46;4.90;;;2.60;;
42726;SDS011;28372;56.832;60.658;2023-12-22T10:58:22;7.68;;;3.95;;
42726;SDS011;28372;56.832;60.658;2023-12-22T11:00:51;7.38;;;3.55;;
42726;SDS011;28372;56.832;60.658;2023-12-22T11:03:23;7.05;;;3.35;;
42726;SDS011;28372;56.832;60.658;2023-12-22T11:05:54;6.28;;;3.33;;
42726;SDS011;28372;56.832;60.658;2023-12-22T11:08:32;10.30;;;3.90;;
42726;SDS011;28372;56.832;60.658;2023-12-22T11:11:04;8.00;;;3.65;;
42726;SDS011;28372;56.832;60.658;2023-12-22T11:14:00;6.82;;;3.20;;
42726;SDS011;28372;56.832;60.658;2023-12-22T11:16:35;10.98;;;4.22;;
42726;SDS011;28372;56.832;60.658;2023-12-22T11:19:05;18.35;;;8.30;;
42726;SDS011;28372;56.832;60.658;2023-12-22T11:22:23;35.58;;;11.40;;
42726;SDS011;28372;56.832;60.658;2023-12-22T11:24:55;15.05;;;7.18;;
42726;SDS011;28372;56.832;60.658;2023-12-22T11:27:26;10.27;;;5.28;;
42726;SDS011;28372;56.832;60.658;2023-12-22T11:29:56;9.73;;;4.57;;
42726;SDS011;28372;56.832;60.658;2023-12-22T11:32:41;6.32;;;3.72;;
42726;SDS011;28372;56.832;60.658;2023-12-22T11:35:12;8.82;;;3.72;;
42726;SDS011;28372;56.832;60.658;2023-12-22T11:37:43;9.13;;;4.15;;
42726;SDS011;28372;56.832;60.658;2023-12-22T11:40:10;11.10;;;4.30;;
42726;SDS011;28372;56.832;60.658;2023-12-22T11:42:40;11.30;;;4.78;;
42726;SDS011;28372;56.832;60.658;2023-12-22T11:45:14;10.07;;;4.82;;
42726;SDS011;28372;56.832;60.658;2023-12-22T11:47:45;9.85;;;4.70;;
42726;SDS011;28372;56.832;60.658;2023-12-22T11:50:50;8.68;;;4.10;;
42726;SDS011;28372;56.832;60.658;2023-12-22T11:53:20;7.97;;;4.18;;
42726;SDS011;28372;56.832;60.658;2023-12-22T11:55:58;8.75;;;4.07;;
42726;SDS011;28372;56.832;60.658;2023-12-22T11:58:36;7.53;;;3.33;;
42726;SDS011;28372;56.832;60.658;2023-12-22T12:01:12;6.90;;;3.40;;
42726;SDS011;28372;56.832;60.658;2023-12-22T12:03:41;5.90;;;3.00;;
42726;SDS011;28372;56.832;60.658;2023-12-22T12:09:00;8.10;;;3.30;;
42726;SDS011;28372;56.832;60.658;2023-12-22T12:14:22;8.50;;;3.65;;
42726;SDS011;28372;56.832;60.658;2023-12-22T12:17:00;6.75;;;3.10;;
42726;SDS011;28372;56.832;60.658;2023-12-22T12:19:38;6.65;;;3.38;;
42726;SDS011;28372;56.832;60.658;2023-12-22T12:22:11;7.97;;;3.42;;
42726;SDS011;28372;56.832;60.658;2023-12-22T12:24:41;7.65;;;3.22;;
42726;SDS011;28372;56.832;60.658;2023-12-22T12:27:16;11.05;;;4.15;;
42726;SDS011;28372;56.832;60.658;2023-12-22T12:29:45;8.70;;;3.72;;
42726;SDS011;28372;56.832;60.658;2023-12-22T12:32:17;7.97;;;4.07;;
42726;SDS011;28372;56.832;60.658;2023-12-22T12:35:03;9.00;;;3.63;;
42726;SDS011;28372;56.832;60.658;2023-12-22T12:37:34;8.13;;;3.90;;
42726;SDS011;28372;56.832;60.658;2023-12-22T12:40:06;8.20;;;3.70;;
42726;SDS011;28372;56.832;60.658;2023-12-22T12:42:35;7.45;;;3.30;;
42726;SDS011;28372;56.832;60.658;2023-12-22T12:45:05;8.80;;;4.00;;
42726;SDS011;28372;56.832;60.658;2023-12-22T12:47:36;8.32;;;4.03;;
42726;SDS011;28372;56.832;60.658;2023-12-22T12:50:12;7.60;;;3.60;;
42726;SDS011;28372;56.832;60.658;2023-12-22T12:52:42;8.68;;;3.83;;
42726;SDS011;28372;56.832;60.658;2023-12-22T12:55:16;8.65;;;3.78;;
42726;SDS011;28372;56.832;60.658;2023-12-22T12:57:54;7.03;;;4.10;;
42726;SDS011;28372;56.832;60.658;2023-12-22T13:00:24;6.35;;;2.83;;
42726;SDS011;28372;56.832;60.658;2023-12-22T13:02:56;7.13;;;3.17;;
42726;SDS011;28372;56.832;60.658;2023-12-22T13:05:31;8.43;;;2.95;;
42726;SDS011;28372;56.832;60.658;2023-12-22T13:08:09;7.10;;;3.00;;
42726;SDS011;28372;56.832;60.658;2023-12-22T13:10:41;5.72;;;2.70;;
42726;SDS011;28372;56.832;60.658;2023-12-22T13:13:28;5.70;;;2.92;;
42726;SDS011;28372;56.832;60.658;2023-12-22T13:15:57;7.43;;;3.00;;
42726;SDS011;28372;56.832;60.658;2023-12-22T13:18:26;7.57;;;3.05;;
42726;SDS011;28372;56.832;60.658;2023-12-22T13:20:54;6.70;;;3.22;;
42726;SDS011;28372;56.832;60.658;2023-12-22T13:23:22;6.22;;;2.97;;
42726;SDS011;28372;56.832;60.658;2023-12-22T13:25:50;6.60;;;2.70;;
42726;SDS011;28372;56.832;60.658;2023-12-22T13:28:27;5.95;;;2.95;;
42726;SDS011;28372;56.832;60.658;2023-12-22T13:30:58;6.35;;;2.92;;
42726;SDS011;28372;56.832;60.658;2023-12-22T13:33:26;5.07;;;2.72;;
42726;SDS011;28372;56.832;60.658;2023-12-22T13:35:56;8.70;;;2.80;;
42726;SDS011;28372;56.832;60.658;2023-12-22T13:38:27;6.00;;;2.90;;
42726;SDS011;28372;56.832;60.658;2023-12-22T13:40:56;8.93;;;3.15;;
42726;SDS011;28372;56.832;60.658;2023-12-22T13:43:28;5.68;;;2.80;;
42726;SDS011;28372;56.832;60.658;2023-12-22T13:45:57;6.18;;;3.05;;
42726;SDS011;28372;56.832;60.658;2023-12-22T13:48:28;7.57;;;3.25;;
42726;SDS011;28372;56.832;60.658;2023-12-22T13:50:57;6.15;;;3.00;;
42726;SDS011;28372;56.832;60.658;2023-12-22T13:53:26;7.07;;;2.58;;
42726;SDS011;28372;56.832;60.658;2023-12-22T13:55:58;6.57;;;3.15;;
42726;SDS011;28372;56.832;60.658;2023-12-22T13:58:28;7.78;;;3.13;;
42726;SDS011;28372;56.832;60.658;2023-12-22T14:00:56;7.32;;;2.85;;
42726;SDS011;28372;56.832;60.658;2023-12-22T14:03:25;7.60;;;3.15;;
42726;SDS011;28372;56.832;60.658;2023-12-22T14:05:52;8.68;;;2.97;;
42726;SDS011;28372;56.832;60.658;2023-12-22T14:08:29;6.75;;;3.08;;
42726;SDS011;28372;56.832;60.658;2023-12-22T14:10:59;6.32;;;2.67;;
42726;SDS011;28372;56.832;60.658;2023-12-22T14:13:28;7.03;;;3.60;;
42726;SDS011;28372;56.832;60.658;2023-12-22T14:15:56;7.60;;;3.28;;
42726;SDS011;28372;56.832;60.658;2023-12-22T14:18:24;7.50;;;3.33;;
42726;SDS011;28372;56.832;60.658;2023-12-22T14:20:52;7.72;;;3.70;;
42726;SDS011;28372;56.832;60.658;2023-12-22T14:23:20;8.60;;;3.90;;
42726;SDS011;28372;56.832;60.658;2023-12-22T14:25:49;8.75;;;4.40;;
42726;SDS011;28372;56.832;60.658;2023-12-22T14:28:17;10.43;;;4.60;;
42726;SDS011;28372;56.832;60.658;2023-12-22T14:33:32;9.82;;;4.15;;
42726;SDS011;28372;56.832;60.658;2023-12-22T14:36:00;10.98;;;4.10;;
42726;SDS011;28372;56.832;60.658;2023-12-22T14:38:28;10.85;;;4.40;;
42726;SDS011;28372;56.832;60.658;2023-12-22T14:40:56;8.77;;;3.80;;
42726;SDS011;28372;56.832;60.658;2023-12-22T14:43:24;12.35;;;5.18;;
42726;SDS011;28372;56.832;60.658;2023-12-22T14:45:51;9.50;;;4.13;;
42726;SDS011;28372;56.832;60.658;2023-12-22T14:48:19;10.40;;;4.82;;
42726;SDS011;28372;56.832;60.658;2023-12-22T14:50:50;11.43;;;4.60;;
42726;SDS011;28372;56.832;60.658;2023-12-22T14:53:20;11.10;;;5.07;;
42726;SDS011;28372;56.832;60.658;2023-12-22T14:55:48;12.52;;;5.55;;
42726;SDS011;28372;56.832;60.658;2023-12-22T14:58:16;10.73;;;5.18;;
42726;SDS011;28372;56.832;60.658;2023-12-22T15:00:44;9.32;;;5.00;;
42726;SDS011;28372;56.832;60.658;2023-12-22T15:03:31;12.27;;;5.68;;
42726;SDS011;28372;56.832;60.658;2023-12-22T15:06:02;11.73;;;5.22;;
42726;SDS011;28372;56.832;60.658;2023-12-22T15:08:31;18.30;;;6.20;;
42726;SDS011;28372;56.832;60.658;2023-12-22T15:11:05;13.40;;;6.13;;